sensor_id;sensor_type;location;lat;lon;timestamp;P1;durP1;ratioP1;P2;durP2;ratioP2
60078;SDS011;45951;45.824;8.824;2023-03-23T00:02:33;21.45;;;13.02;;
60078;SDS011;45951;45.824;8.824;2023-03-23T00:08:38;19.48;;;12.73;;
60078;SDS011;45951;45.824;8.824;2023-03-23T00:14:45;20.27;;;12.75;;
60078;SDS011;45951;45.824;8.824;2023-03-23T00:20:45;18.95;;;13.48;;
60078;SDS011;45951;45.824;8.824;2023-03-23T00:26:48;18.98;;;12.80;;
60078;SDS011;45951;45.824;8.824;2023-03-23T00:32:51;21.75;;;12.20;;
60078;SDS011;45951;45.824;8.824;2023-03-23T00:38:51;19.30;;;12.35;;
60078;SDS011;45951;45.824;8.824;2023-03-23T00:44:52;18.95;;;12.60;;
60078;SDS011;45951;45.824;8.824;2023-03-23T00:51:00;20.85;;;13.65;;
60078;SDS011;45951;45.824;8.824;2023-03-23T00:57:01;20.00;;;12.98;;
60078;SDS011;45951;45.824;8.824;2023-03-23T01:03:01;16.50;;;11.65;;
60078;SDS011;45951;45.824;8.824;2023-03-23T01:09:02;19.95;;;12.40;;
60078;SDS011;45951;45.824;8.824;2023-03-23T01:15:03;19.58;;;12.63;;
60078;SDS011;45951;45.824;8.824;2023-03-23T01:21:11;21.02;;;12.68;;
60078;SDS011;45951;45.824;8.824;2023-03-23T01:27:15;21.50;;;13.73;;
60078;SDS011;45951;45.824;8.824;2023-03-23T01:33:16;18.55;;;12.30;;
60078;SDS011;45951;45.824;8.824;2023-03-23T01:39:16;20.17;;;12.68;;
60078;SDS011;45951;45.824;8.824;2023-03-23T01:51:20;19.95;;;13.10;;
60078;SDS011;45951;45.824;8.824;2023-03-23T01:57:21;21.52;;;13.40;;
60078;SDS011;45951;45.824;8.824;2023-03-23T02:03:22;19.60;;;12.25;;
60078;SDS011;45951;45.824;8.824;2023-03-23T02:09:24;19.67;;;12.90;;
60078;SDS011;45951;45.824;8.824;2023-03-23T02:15:26;19.50;;;12.35;;
60078;SDS011;45951;45.824;8.824;2023-03-23T02:33:56;19.43;;;12.53;;
60078;SDS011;45951;45.824;8.824;2023-03-23T02:40:02;18.10;;;12.50;;
60078;SDS011;45951;45.824;8.824;2023-03-23T02:46:14;18.23;;;11.98;;
60078;SDS011;45951;45.824;8.824;2023-03-23T02:52:17;17.75;;;11.60;;
60078;SDS011;45951;45.824;8.824;2023-03-23T02:58:21;20.05;;;12.77;;
60078;SDS011;45951;45.824;8.824;2023-03-23T03:04:22;18.70;;;12.02;;
60078;SDS011;45951;45.824;8.824;2023-03-23T03:22:39;18.80;;;11.57;;
60078;SDS011;45951;45.824;8.824;2023-03-23T03:28:45;19.15;;;11.88;;
60078;SDS011;45951;45.824;8.824;2023-03-23T03:34:47;19.13;;;12.30;;
60078;SDS011;45951;45.824;8.824;2023-03-23T03:40:50;19.10;;;12.15;;
60078;SDS011;45951;45.824;8.824;2023-03-23T03:46:51;17.38;;;11.73;;
60078;SDS011;45951;45.824;8.824;2023-03-23T03:52:51;20.15;;;12.15;;
60078;SDS011;45951;45.824;8.824;2023-03-23T03:58:52;18.20;;;11.20;;
60078;SDS011;45951;45.824;8.824;2023-03-23T04:04:53;17.50;;;11.70;;
60078;SDS011;45951;45.824;8.824;2023-03-23T04:10:53;21.67;;;11.73;;
60078;SDS011;45951;45.824;8.824;2023-03-23T04:16:53;17.07;;;11.53;;
60078;SDS011;45951;45.824;8.824;2023-03-23T04:22:56;18.42;;;11.98;;
60078;SDS011;45951;45.824;8.824;2023-03-23T04:28:57;17.67;;;11.40;;
60078;SDS011;45951;45.824;8.824;2023-03-23T04:34:58;18.40;;;11.82;;
60078;SDS011;45951;45.824;8.824;2023-03-23T04:40:59;18.48;;;12.10;;
60078;SDS011;45951;45.824;8.824;2023-03-23T04:47:01;17.88;;;10.65;;
60078;SDS011;45951;45.824;8.824;2023-03-23T04:53:02;19.67;;;10.80;;
60078;SDS011;45951;45.824;8.824;2023-03-23T04:59:03;17.35;;;11.13;;
60078;SDS011;45951;45.824;8.824;2023-03-23T05:05:06;17.20;;;11.35;;
60078;SDS011;45951;45.824;8.824;2023-03-23T05:11:07;17.60;;;10.77;;
60078;SDS011;45951;45.824;8.824;2023-03-23T05:17:08;16.38;;;10.80;;
60078;SDS011;45951;45.824;8.824;2023-03-23T05:23:09;17.17;;;11.63;;
60078;SDS011;45951;45.824;8.824;2023-03-23T05:29:09;19.20;;;12.45;;
60078;SDS011;45951;45.824;8.824;2023-03-23T05:35:11;22.45;;;14.20;;
60078;SDS011;45951;45.824;8.824;2023-03-23T05:41:12;19.80;;;13.30;;
60078;SDS011;45951;45.824;8.824;2023-03-23T05:47:12;23.67;;;14.98;;
60078;SDS011;45951;45.824;8.824;2023-03-23T05:53:13;21.25;;;13.43;;
60078;SDS011;45951;45.824;8.824;2023-03-23T05:59:13;21.35;;;14.25;;
60078;SDS011;45951;45.824;8.824;2023-03-23T06:05:14;23.92;;;13.82;;
60078;SDS011;45951;45.824;8.824;2023-03-23T06:11:15;20.67;;;14.27;;
60078;SDS011;45951;45.824;8.824;2023-03-23T06:17:16;19.90;;;13.45;;
60078;SDS011;45951;45.824;8.824;2023-03-23T06:23:19;22.42;;;14.13;;
60078;SDS011;45951;45.824;8.824;2023-03-23T06:29:20;22.58;;;14.25;;
60078;SDS011;45951;45.824;8.824;2023-03-23T06:35:20;24.30;;;14.63;;
60078;SDS011;45951;45.824;8.824;2023-03-23T06:41:21;21.13;;;14.50;;
60078;SDS011;45951;45.824;8.824;2023-03-23T06:47:21;23.97;;;15.20;;
60078;SDS011;45951;45.824;8.824;2023-03-23T06:53:23;23.33;;;15.00;;
60078;SDS011;45951;45.824;8.824;2023-03-23T06:59:23;20.67;;;14.15;;
60078;SDS011;45951;45.824;8.824;2023-03-23T07:05:24;22.65;;;14.60;;
60078;SDS011;45951;45.824;8.824;2023-03-23T07:11:25;18.38;;;11.88;;
60078;SDS011;45951;45.824;8.824;2023-03-23T07:17:25;23.38;;;15.50;;
60078;SDS011;45951;45.824;8.824;2023-03-23T07:23:25;21.52;;;14.10;;
60078;SDS011;45951;45.824;8.824;2023-03-23T07:29:26;17.27;;;10.20;;
60078;SDS011;45951;45.824;8.824;2023-03-23T07:35:26;22.50;;;13.82;;
60078;SDS011;45951;45.824;8.824;2023-03-23T07:41:27;18.88;;;12.80;;
60078;SDS011;45951;45.824;8.824;2023-03-23T07:47:27;21.55;;;13.35;;
60078;SDS011;45951;45.824;8.824;2023-03-23T07:53:27;24.17;;;13.93;;
60078;SDS011;45951;45.824;8.824;2023-03-23T07:59:28;19.73;;;13.25;;
60078;SDS011;45951;45.824;8.824;2023-03-23T08:05:28;18.52;;;13.13;;
60078;SDS011;45951;45.824;8.824;2023-03-23T08:11:29;21.23;;;13.70;;
60078;SDS011;45951;45.824;8.824;2023-03-23T08:17:29;20.92;;;13.15;;
60078;SDS011;45951;45.824;8.824;2023-03-23T08:23:30;20.23;;;12.35;;
60078;SDS011;45951;45.824;8.824;2023-03-23T08:29:31;17.33;;;11.40;;
60078;SDS011;45951;45.824;8.824;2023-03-23T08:35:32;18.38;;;12.07;;
60078;SDS011;45951;45.824;8.824;2023-03-23T08:41:32;18.80;;;12.43;;
60078;SDS011;45951;45.824;8.824;2023-03-23T08:47:34;18.85;;;11.93;;
60078;SDS011;45951;45.824;8.824;2023-03-23T08:53:35;17.35;;;12.32;;
60078;SDS011;45951;45.824;8.824;2023-03-23T08:59:36;17.48;;;12.02;;
60078;SDS011;45951;45.824;8.824;2023-03-23T09:05:37;19.20;;;12.20;;
60078;SDS011;45951;45.824;8.824;2023-03-23T09:11:39;19.17;;;12.63;;
60078;SDS011;45951;45.824;8.824;2023-03-23T09:17:43;20.05;;;11.60;;
60078;SDS011;45951;45.824;8.824;2023-03-23T09:23:45;15.07;;;9.90;;
60078;SDS011;45951;45.824;8.824;2023-03-23T09:29:48;12.10;;;8.20;;
60078;SDS011;45951;45.824;8.824;2023-03-23T09:35:48;10.90;;;7.30;;
60078;SDS011;45951;45.824;8.824;2023-03-23T09:54:27;11.30;;;8.50;;
60078;SDS011;45951;45.824;8.824;2023-03-23T10:00:31;14.23;;;8.50;;
60078;SDS011;45951;45.824;8.824;2023-03-23T10:06:34;10.80;;;6.47;;
60078;SDS011;45951;45.824;8.824;2023-03-23T10:12:42;8.73;;;5.00;;
60078;SDS011;45951;45.824;8.824;2023-03-23T10:25:05;12.43;;;7.05;;
60078;SDS011;45951;45.824;8.824;2023-03-23T10:31:10;11.85;;;7.55;;
60078;SDS011;45951;45.824;8.824;2023-03-23T10:37:17;11.50;;;7.50;;
60078;SDS011;45951;45.824;8.824;2023-03-23T10:49:20;9.70;;;6.20;;
60078;SDS011;45951;45.824;8.824;2023-03-23T10:55:24;10.73;;;7.13;;
60078;SDS011;45951;45.824;8.824;2023-03-23T11:01:30;12.45;;;7.75;;
60078;SDS011;45951;45.824;8.824;2023-03-23T11:07:32;11.88;;;8.50;;
60078;SDS011;45951;45.824;8.824;2023-03-23T11:13:37;13.40;;;7.95;;
60078;SDS011;45951;45.824;8.824;2023-03-23T11:19:45;13.65;;;8.00;;
60078;SDS011;45951;45.824;8.824;2023-03-23T11:25:53;14.65;;;8.13;;
60078;SDS011;45951;45.824;8.824;2023-03-23T11:32:10;11.27;;;7.80;;
60078;SDS011;45951;45.824;8.824;2023-03-23T11:38:17;11.97;;;8.67;;
60078;SDS011;45951;45.824;8.824;2023-03-23T11:44:20;11.82;;;8.68;;
60078;SDS011;45951;45.824;8.824;2023-03-23T11:50:31;15.63;;;9.52;;
60078;SDS011;45951;45.824;8.824;2023-03-23T11:56:44;14.30;;;10.93;;
60078;SDS011;45951;45.824;8.824;2023-03-23T12:03:03;16.52;;;10.82;;
60078;SDS011;45951;45.824;8.824;2023-03-23T12:09:33;14.10;;;10.02;;
60078;SDS011;45951;45.824;8.824;2023-03-23T13:00:01;14.45;;;10.30;;
60078;SDS011;45951;45.824;8.824;2023-03-23T13:06:17;14.80;;;11.30;;
60078;SDS011;45951;45.824;8.824;2023-03-23T13:12:22;15.10;;;11.95;;
60078;SDS011;45951;45.824;8.824;2023-03-23T13:24:49;17.75;;;12.50;;
60078;SDS011;45951;45.824;8.824;2023-03-23T13:30:54;14.45;;;11.70;;
60078;SDS011;45951;45.824;8.824;2023-03-23T13:42:59;17.63;;;11.27;;
60078;SDS011;45951;45.824;8.824;2023-03-23T13:49:04;14.80;;;10.75;;
60078;SDS011;45951;45.824;8.824;2023-03-23T14:01:31;14.77;;;9.80;;
60078;SDS011;45951;45.824;8.824;2023-03-23T14:14:07;11.82;;;9.57;;
60078;SDS011;45951;45.824;8.824;2023-03-23T14:20:32;11.88;;;8.93;;
60078;SDS011;45951;45.824;8.824;2023-03-23T14:26:34;12.45;;;9.27;;
60078;SDS011;45951;45.824;8.824;2023-03-23T14:32:36;12.20;;;8.95;;
60078;SDS011;45951;45.824;8.824;2023-03-23T14:38:36;12.10;;;8.40;;
60078;SDS011;45951;45.824;8.824;2023-03-23T14:44:49;13.00;;;9.43;;
60078;SDS011;45951;45.824;8.824;2023-03-23T14:51:00;12.60;;;8.95;;
60078;SDS011;45951;45.824;8.824;2023-03-23T14:57:12;12.65;;;9.20;;
60078;SDS011;45951;45.824;8.824;2023-03-23T15:03:16;13.27;;;8.27;;
60078;SDS011;45951;45.824;8.824;2023-03-23T15:09:19;13.20;;;9.35;;
60078;SDS011;45951;45.824;8.824;2023-03-23T15:15:24;14.18;;;9.63;;
60078;SDS011;45951;45.824;8.824;2023-03-23T15:21:27;13.32;;;9.23;;
60078;SDS011;45951;45.824;8.824;2023-03-23T15:27:32;13.65;;;9.75;;
60078;SDS011;45951;45.824;8.824;2023-03-23T15:33:37;10.10;;;8.40;;
60078;SDS011;45951;45.824;8.824;2023-03-23T15:45:50;10.20;;;7.65;;
60078;SDS011;45951;45.824;8.824;2023-03-23T15:51:52;11.23;;;7.60;;
60078;SDS011;45951;45.824;8.824;2023-03-23T15:57:56;10.25;;;7.30;;
60078;SDS011;45951;45.824;8.824;2023-03-23T16:03:58;10.97;;;7.07;;
60078;SDS011;45951;45.824;8.824;2023-03-23T16:10:06;23.75;;;6.55;;
60078;SDS011;45951;45.824;8.824;2023-03-23T16:16:15;9.07;;;6.97;;
60078;SDS011;45951;45.824;8.824;2023-03-23T16:22:17;14.00;;;9.52;;
60078;SDS011;45951;45.824;8.824;2023-03-23T16:28:17;9.88;;;6.85;;
60078;SDS011;45951;45.824;8.824;2023-03-23T16:34:19;10.80;;;7.20;;
60078;SDS011;45951;45.824;8.824;2023-03-23T16:40:20;8.97;;;6.20;;
60078;SDS011;45951;45.824;8.824;2023-03-23T16:46:21;9.90;;;7.18;;
60078;SDS011;45951;45.824;8.824;2023-03-23T16:52:21;9.30;;;6.60;;
60078;SDS011;45951;45.824;8.824;2023-03-23T16:58:22;10.10;;;6.90;;
60078;SDS011;45951;45.824;8.824;2023-03-23T17:04:22;11.68;;;6.55;;
60078;SDS011;45951;45.824;8.824;2023-03-23T17:10:24;8.93;;;6.50;;
60078;SDS011;45951;45.824;8.824;2023-03-23T17:16:26;10.02;;;7.72;;
60078;SDS011;45951;45.824;8.824;2023-03-23T17:22:26;8.75;;;6.65;;
60078;SDS011;45951;45.824;8.824;2023-03-23T17:28:27;9.55;;;6.15;;
60078;SDS011;45951;45.824;8.824;2023-03-23T17:34:27;13.00;;;10.38;;
60078;SDS011;45951;45.824;8.824;2023-03-23T17:40:28;8.70;;;5.90;;
60078;SDS011;45951;45.824;8.824;2023-03-23T17:46:28;9.67;;;5.47;;
60078;SDS011;45951;45.824;8.824;2023-03-23T17:52:29;9.52;;;4.85;;
60078;SDS011;45951;45.824;8.824;2023-03-23T17:58:30;7.53;;;5.00;;
60078;SDS011;45951;45.824;8.824;2023-03-23T18:04:31;8.80;;;5.50;;
60078;SDS011;45951;45.824;8.824;2023-03-23T18:10:31;10.20;;;5.28;;
60078;SDS011;45951;45.824;8.824;2023-03-23T18:16:34;7.97;;;4.47;;
60078;SDS011;45951;45.824;8.824;2023-03-23T18:22:35;9.43;;;5.22;;
60078;SDS011;45951;45.824;8.824;2023-03-23T18:28:35;9.23;;;6.65;;
60078;SDS011;45951;45.824;8.824;2023-03-23T18:34:38;12.20;;;8.40;;
60078;SDS011;45951;45.824;8.824;2023-03-23T18:40:46;10.77;;;7.70;;
60078;SDS011;45951;45.824;8.824;2023-03-23T18:46:46;9.48;;;7.68;;
60078;SDS011;45951;45.824;8.824;2023-03-23T18:52:46;11.00;;;6.80;;
60078;SDS011;45951;45.824;8.824;2023-03-23T18:58:47;10.15;;;6.35;;
60078;SDS011;45951;45.824;8.824;2023-03-23T19:04:51;10.52;;;7.40;;
60078;SDS011;45951;45.824;8.824;2023-03-23T19:10:54;9.27;;;6.17;;
60078;SDS011;45951;45.824;8.824;2023-03-23T19:16:56;8.93;;;5.55;;
60078;SDS011;45951;45.824;8.824;2023-03-23T19:22:56;12.35;;;6.93;;
60078;SDS011;45951;45.824;8.824;2023-03-23T19:28:56;9.65;;;6.18;;
60078;SDS011;45951;45.824;8.824;2023-03-23T19:34:57;10.80;;;6.10;;
60078;SDS011;45951;45.824;8.824;2023-03-23T19:40:57;9.70;;;5.78;;
60078;SDS011;45951;45.824;8.824;2023-03-23T19:47:00;7.93;;;6.15;;
60078;SDS011;45951;45.824;8.824;2023-03-23T19:53:00;8.43;;;5.78;;
60078;SDS011;45951;45.824;8.824;2023-03-23T19:59:00;6.70;;;4.83;;
60078;SDS011;45951;45.824;8.824;2023-03-23T20:05:01;12.93;;;6.28;;
60078;SDS011;45951;45.824;8.824;2023-03-23T20:11:05;11.35;;;6.57;;
60078;SDS011;45951;45.824;8.824;2023-03-23T20:23:08;8.75;;;6.18;;
60078;SDS011;45951;45.824;8.824;2023-03-23T20:29:08;8.77;;;5.78;;
60078;SDS011;45951;45.824;8.824;2023-03-23T20:35:09;8.60;;;6.18;;
60078;SDS011;45951;45.824;8.824;2023-03-23T20:41:09;8.98;;;5.93;;
60078;SDS011;45951;45.824;8.824;2023-03-23T20:47:11;8.02;;;5.80;;
60078;SDS011;45951;45.824;8.824;2023-03-23T20:53:11;9.55;;;6.80;;
60078;SDS011;45951;45.824;8.824;2023-03-23T20:59:12;8.23;;;6.20;;
60078;SDS011;45951;45.824;8.824;2023-03-23T21:05:13;9.98;;;6.07;;
60078;SDS011;45951;45.824;8.824;2023-03-23T21:11:17;9.45;;;5.90;;
60078;SDS011;45951;45.824;8.824;2023-03-23T21:17:19;8.40;;;6.10;;
60078;SDS011;45951;45.824;8.824;2023-03-23T21:23:20;9.02;;;6.10;;
60078;SDS011;45951;45.824;8.824;2023-03-23T21:29:20;9.20;;;6.28;;
60078;SDS011;45951;45.824;8.824;2023-03-23T21:35:23;9.75;;;5.82;;
60078;SDS011;45951;45.824;8.824;2023-03-23T21:41:23;8.40;;;5.83;;
60078;SDS011;45951;45.824;8.824;2023-03-23T21:47:23;8.83;;;5.80;;
60078;SDS011;45951;45.824;8.824;2023-03-23T21:53:25;10.93;;;5.47;;
60078;SDS011;45951;45.824;8.824;2023-03-23T21:59:26;8.40;;;5.85;;
60078;SDS011;45951;45.824;8.824;2023-03-23T22:05:27;10.00;;;5.90;;
60078;SDS011;45951;45.824;8.824;2023-03-23T22:11:28;8.38;;;6.00;;
60078;SDS011;45951;45.824;8.824;2023-03-23T22:17:30;10.40;;;6.20;;
60078;SDS011;45951;45.824;8.824;2023-03-23T22:23:30;9.38;;;6.20;;
60078;SDS011;45951;45.824;8.824;2023-03-23T22:29:30;8.10;;;5.00;;
60078;SDS011;45951;45.824;8.824;2023-03-23T22:35:31;9.00;;;5.68;;
60078;SDS011;45951;45.824;8.824;2023-03-23T22:41:33;9.88;;;6.05;;
60078;SDS011;45951;45.824;8.824;2023-03-23T22:47:36;11.90;;;7.53;;
60078;SDS011;45951;45.824;8.824;2023-03-23T22:53:37;10.50;;;6.72;;
60078;SDS011;45951;45.824;8.824;2023-03-23T22:59:37;7.97;;;5.73;;
60078;SDS011;45951;45.824;8.824;2023-03-23T23:05:41;9.13;;;5.82;;
60078;SDS011;45951;45.824;8.824;2023-03-23T23:11:42;9.55;;;5.78;;
60078;SDS011;45951;45.824;8.824;2023-03-23T23:17:42;10.30;;;6.18;;
60078;SDS011;45951;45.824;8.824;2023-03-23T23:23:43;10.03;;;6.03;;
60078;SDS011;45951;45.824;8.824;2023-03-23T23:29:45;10.48;;;6.25;;
60078;SDS011;45951;45.824;8.824;2023-03-23T23:35:47;10.60;;;5.90;;
60078;SDS011;45951;45.824;8.824;2023-03-23T23:41:47;8.15;;;5.47;;
60078;SDS011;45951;45.824;8.824;2023-03-23T23:47:48;7.93;;;5.47;;
60078;SDS011;45951;45.824;8.824;2023-03-23T23:53:48;9.07;;;6.32;;
60078;SDS011;45951;45.824;8.824;2023-03-23T23:59:52;9.10;;;6.05;;
